createdAt,value
2018-09-13T00:01:36.355Z,48.30
2018-09-13T00:04:04.627Z,48.70
2018-09-13T00:06:32.926Z,48.80
2018-09-13T00:09:01.192Z,48.50
2018-09-13T00:11:29.559Z,48.50
2018-09-13T00:13:57.819Z,48.50
2018-09-13T00:16:26.070Z,48.60
2018-09-13T00:18:54.371Z,47.90
2018-09-13T00:21:23.589Z,48.50
2018-09-13T00:23:51.924Z,48.60
2018-09-13T00:26:20.173Z,48.60
2018-09-13T00:28:48.421Z,48.60
2018-09-13T00:31:16.663Z,48.90
2018-09-13T00:33:44.988Z,49.50
2018-09-13T00:36:13.829Z,49.70
2018-09-13T00:38:42.148Z,49.70
2018-09-13T00:41:10.411Z,49.60
2018-09-13T00:43:38.640Z,49.70
2018-09-13T00:46:06.988Z,49.60
2018-09-13T00:48:35.204Z,49.50
2018-09-13T00:51:03.498Z,49.30
2018-09-13T00:53:31.783Z,49.40
2018-09-13T00:56:00.089Z,49.50
2018-09-13T00:58:28.371Z,49.50
2018-09-13T01:00:56.636Z,49.20
2018-09-13T01:03:24.915Z,49.60
2018-09-13T01:05:53.237Z,49.80
2018-09-13T01:08:21.541Z,49.80
2018-09-13T01:10:49.845Z,50.00
2018-09-13T01:13:18.212Z,50.20
2018-09-13T01:15:46.478Z,50.50
2018-09-13T01:18:14.859Z,50.80
2018-09-13T01:20:43.106Z,51.00
2018-09-13T01:23:11.372Z,50.90
2018-09-13T01:25:39.643Z,51.00
2018-09-13T01:28:07.981Z,51.50
2018-09-13T01:30:36.308Z,51.50
2018-09-13T01:33:04.530Z,51.80
2018-09-13T01:35:32.806Z,52.70
2018-09-13T01:38:01.034Z,52.60
2018-09-13T01:40:29.277Z,53.90
2018-09-13T01:42:57.493Z,55.20
2018-09-13T01:45:25.759Z,54.30
2018-09-13T01:47:54.055Z,54.20
2018-09-13T01:50:22.511Z,53.90
2018-09-13T01:52:50.772Z,54.60
2018-09-13T01:55:19.215Z,55.10
2018-09-13T01:57:47.539Z,54.90
2018-09-13T02:00:15.783Z,54.70
2018-09-13T02:02:44.025Z,54.80
2018-09-13T02:05:12.327Z,55.80
2018-09-13T02:07:40.583Z,56.50
2018-09-13T02:10:08.843Z,56.30
2018-09-13T02:12:37.106Z,56.20
2018-09-13T02:15:05.467Z,56.10
2018-09-13T02:17:33.744Z,56.00
2018-09-13T02:20:02.048Z,56.00
2018-09-13T02:22:30.335Z,56.70
2018-09-13T02:24:58.675Z,56.60
2018-09-13T02:27:27.227Z,56.80
2018-09-13T02:29:55.511Z,56.60
2018-09-13T02:32:24.202Z,56.20
2018-09-13T02:34:52.726Z,56.10
2018-09-13T02:37:22.247Z,56.20
2018-09-13T02:39:50.493Z,56.50
2018-09-13T02:42:20.265Z,56.50
2018-09-13T02:44:48.582Z,56.40
2018-09-13T02:47:16.898Z,56.40
2018-09-13T02:49:45.172Z,56.50
2018-09-13T02:52:13.416Z,56.60
2018-09-13T02:54:41.673Z,56.60
2018-09-13T02:57:09.921Z,56.50
2018-09-13T02:59:38.228Z,56.30
2018-09-13T03:02:06.503Z,56.10
2018-09-13T03:04:34.736Z,56.80
2018-09-13T03:07:03.064Z,56.20
2018-09-13T03:09:31.363Z,56.40
2018-09-13T03:11:59.672Z,56.60
2018-09-13T03:14:27.943Z,56.70
2018-09-13T03:16:56.204Z,56.60
2018-09-13T03:19:24.496Z,56.60
2018-09-13T03:21:52.808Z,56.50
2018-09-13T03:24:21.073Z,56.60
2018-09-13T03:26:49.373Z,56.70
2018-09-13T03:29:17.715Z,56.70
2018-09-13T03:31:45.992Z,56.80
2018-09-13T03:34:14.331Z,56.90
2018-09-13T03:36:42.620Z,57.00
2018-09-13T03:39:11.794Z,57.30
2018-09-13T03:41:40.233Z,58.10
2018-09-13T03:44:08.763Z,57.70
2018-09-13T03:46:37.157Z,57.80
2018-09-13T03:49:12.155Z,57.70
2018-09-13T03:51:40.402Z,57.60
2018-09-13T03:54:08.704Z,58.00
2018-09-13T03:56:36.998Z,57.90
2018-09-13T03:59:05.416Z,57.90
2018-09-13T04:01:33.680Z,57.80
2018-09-13T04:04:02.011Z,58.40
2018-09-13T04:06:30.300Z,57.70
2018-09-13T04:08:58.620Z,57.70
2018-09-13T04:11:26.875Z,57.70
2018-09-13T04:13:55.255Z,57.70
2018-09-13T04:16:23.515Z,57.80
2018-09-13T04:18:51.896Z,57.80
2018-09-13T04:21:20.123Z,58.40
2018-09-13T04:23:48.447Z,58.80
2018-09-13T04:26:16.735Z,58.90
2018-09-13T04:28:45.028Z,59.10
2018-09-13T04:31:13.388Z,59.50
2018-09-13T04:33:41.696Z,61.40
2018-09-13T04:36:10.090Z,61.70
2018-09-13T04:38:38.307Z,62.30
2018-09-13T04:41:07.297Z,62.30
2018-09-13T04:43:35.744Z,62.10
2018-09-13T04:46:04.129Z,62.20
2018-09-13T04:48:32.571Z,62.80
2018-09-13T04:51:00.966Z,62.60
2018-09-13T04:53:29.351Z,63.10
2018-09-13T04:55:57.717Z,62.70
2018-09-13T04:58:26.119Z,63.00
2018-09-13T05:00:54.464Z,63.70
2018-09-13T05:03:22.732Z,63.50
2018-09-13T05:05:51.012Z,63.20
2018-09-13T05:08:19.332Z,63.10
2018-09-13T05:10:47.683Z,63.20
2018-09-13T05:13:15.959Z,63.40
2018-09-13T05:15:44.248Z,63.80
2018-09-13T05:18:12.479Z,64.10
2018-09-13T05:20:40.784Z,64.20
2018-09-13T05:23:09.048Z,63.80
2018-09-13T05:25:37.368Z,63.90
2018-09-13T05:28:05.741Z,63.60
2018-09-13T05:30:34.068Z,63.40
2018-09-13T05:33:02.344Z,63.30
2018-09-13T05:35:30.600Z,63.30
2018-09-13T05:37:58.914Z,64.10
2018-09-13T05:40:27.196Z,64.60
2018-09-13T05:42:55.652Z,65.00
2018-09-13T05:45:24.444Z,65.60
2018-09-13T05:47:52.747Z,66.40
2018-09-13T05:50:21.242Z,67.10
2018-09-13T05:52:49.527Z,67.20
2018-09-13T05:55:17.792Z,67.90
2018-09-13T05:57:46.075Z,68.60
2018-09-13T06:00:14.357Z,68.60
2018-09-13T06:02:42.671Z,68.80
2018-09-13T06:05:10.954Z,69.50
2018-09-13T06:07:39.875Z,69.50
2018-09-13T06:10:08.300Z,68.80
2018-09-13T06:12:36.622Z,68.90
2018-09-13T06:15:05.336Z,69.00
2018-09-13T06:17:33.599Z,69.10
2018-09-13T06:20:01.909Z,68.30
2018-09-13T06:22:30.192Z,68.20
2018-09-13T06:24:58.434Z,68.40
2018-09-13T06:27:26.719Z,68.90
2018-09-13T06:29:55.072Z,68.80
2018-09-13T06:32:23.342Z,69.30
2018-09-13T06:34:51.655Z,69.20
2018-09-13T06:37:21.429Z,68.90
2018-09-13T06:39:49.696Z,68.10
2018-09-13T06:42:18.064Z,68.30
2018-09-13T06:44:46.299Z,69.70
2018-09-13T06:47:14.608Z,68.20
2018-09-13T06:49:42.904Z,67.30
2018-09-13T06:52:11.159Z,66.70
2018-09-13T06:54:39.444Z,66.40
2018-09-13T06:57:07.760Z,66.50
2018-09-13T06:59:36.071Z,66.30
2018-09-13T07:02:04.360Z,66.10
2018-09-13T07:04:32.652Z,65.50
2018-09-13T07:07:00.891Z,64.20
2018-09-13T07:09:29.219Z,65.00
2018-09-13T07:11:57.518Z,64.10
2018-09-13T07:14:40.124Z,64.50
2018-09-13T07:17:08.396Z,64.00
2018-09-13T07:19:36.695Z,65.00
2018-09-13T07:22:05.222Z,64.40
2018-09-13T07:24:33.482Z,63.60
2018-09-13T07:27:01.799Z,63.90
2018-09-13T07:29:30.168Z,65.00
2018-09-13T07:31:58.460Z,63.90
2018-09-13T07:34:26.760Z,64.30
2018-09-13T07:36:55.140Z,64.00
2018-09-13T07:39:23.513Z,63.40
2018-09-13T07:41:51.812Z,63.00
2018-09-13T07:44:20.128Z,63.20
2018-09-13T07:46:48.426Z,62.90
2018-09-13T07:49:16.777Z,63.00
2018-09-13T07:51:45.080Z,63.00
2018-09-13T07:54:13.358Z,62.60
2018-09-13T07:56:41.696Z,62.90
2018-09-13T07:59:09.996Z,62.80
2018-09-13T08:01:38.264Z,62.60
2018-09-13T08:04:06.983Z,62.60
2018-09-13T08:06:35.386Z,62.60
2018-09-13T08:09:06.260Z,63.70
2018-09-13T08:11:34.516Z,64.10
2018-09-13T08:14:02.839Z,64.40
2018-09-13T08:16:31.155Z,64.20
2018-09-13T08:18:59.472Z,64.20
2018-09-13T08:21:27.727Z,64.50
2018-09-13T08:23:55.998Z,65.20
2018-09-13T08:26:24.328Z,65.10
2018-09-13T08:28:52.667Z,65.10
2018-09-13T08:31:20.956Z,65.10
2018-09-13T08:33:49.384Z,64.40
2018-09-13T08:36:17.705Z,64.70
2018-09-13T08:38:45.963Z,64.40
2018-09-13T08:41:14.379Z,64.90
2018-09-13T08:43:42.723Z,65.20
2018-09-13T08:46:11.013Z,65.00
2018-09-13T08:48:39.319Z,64.90
2018-09-13T08:51:07.588Z,64.60
2018-09-13T08:53:35.892Z,64.70
2018-09-13T08:56:04.151Z,64.30
2018-09-13T08:58:32.458Z,64.60
2018-09-13T09:01:00.748Z,65.10
2018-09-13T09:03:29.070Z,64.50
2018-09-13T09:05:57.474Z,64.30
2018-09-13T09:08:25.816Z,63.10
2018-09-13T09:10:54.144Z,63.60
2018-09-13T09:13:22.674Z,64.00
2018-09-13T09:15:50.971Z,63.80
2018-09-13T09:18:19.376Z,63.50
2018-09-13T09:20:47.615Z,63.40
2018-09-13T09:23:15.913Z,64.00
2018-09-13T09:25:44.207Z,64.20
2018-09-13T09:28:12.516Z,64.40
2018-09-13T09:30:40.803Z,64.20
2018-09-13T09:33:09.071Z,64.50
2018-09-13T09:35:37.379Z,64.40
2018-09-13T09:38:05.671Z,64.20
2018-09-13T09:40:40.768Z,65.00
2018-09-13T09:43:09.011Z,65.20
2018-09-13T09:45:37.301Z,65.50
2018-09-13T09:48:05.705Z,64.90
2018-09-13T09:50:34.024Z,64.80
2018-09-13T09:53:02.409Z,65.20
2018-09-13T09:55:30.727Z,66.20
2018-09-13T09:57:59.162Z,65.20
2018-09-13T10:00:33.153Z,65.00
2018-09-13T10:03:01.524Z,64.30
2018-09-13T10:05:29.926Z,64.30
2018-09-13T10:07:58.206Z,65.10
2018-09-13T10:10:26.788Z,65.40
2018-09-13T10:12:55.104Z,65.80
2018-09-13T10:15:46.344Z,66.50
2018-09-13T10:18:20.196Z,65.40
2018-09-13T10:20:53.860Z,65.80
2018-09-13T10:23:27.508Z,65.40
2018-09-13T10:26:01.272Z,65.50
2018-09-13T10:28:35.078Z,65.20
2018-09-13T10:31:08.631Z,65.40
2018-09-13T10:33:42.349Z,64.80
2018-09-13T10:36:16.140Z,65.00
2018-09-13T10:38:49.955Z,65.50
2018-09-13T10:42:22.222Z,66.00
2018-09-13T10:44:56.040Z,65.90
2018-09-13T10:47:29.841Z,66.00
2018-09-13T10:50:03.516Z,65.80
2018-09-13T10:52:34.878Z,65.20
2018-09-13T10:55:03.177Z,64.90
2018-09-13T10:57:36.948Z,64.50
2018-09-13T11:00:05.274Z,64.50
2018-09-13T11:02:33.567Z,65.20
2018-09-13T11:05:01.855Z,64.50
2018-09-13T11:07:30.211Z,64.50
2018-09-13T11:09:59.267Z,65.10
2018-09-13T11:12:33.538Z,66.50
2018-09-13T11:15:44.423Z,66.20
2018-09-13T11:18:13.531Z,65.90
2018-09-13T11:20:42.689Z,66.50
2018-09-13T11:23:11.790Z,66.90
2018-09-13T11:25:42.361Z,67.80
2018-09-13T11:28:11.492Z,68.10
2018-09-13T11:30:41.342Z,67.40
2018-09-13T11:33:10.358Z,67.90
2018-09-13T11:35:40.565Z,66.40
2018-09-13T11:38:09.682Z,65.60
2018-09-13T11:40:40.022Z,66.10
2018-09-13T11:43:11.197Z,66.00
2018-09-13T11:45:42.184Z,66.40
2018-09-13T11:48:11.440Z,66.20
2018-09-13T11:50:41.734Z,66.50
2018-09-13T11:53:13.330Z,66.10
2018-09-13T11:55:47.847Z,65.60
2018-09-13T11:58:17.624Z,66.40
2018-09-13T12:00:50.040Z,66.80
2018-09-13T12:03:21.109Z,66.60
2018-09-13T12:05:53.010Z,66.20
2018-09-13T12:08:23.494Z,65.50
2018-09-13T12:10:58.471Z,65.30
2018-09-13T12:13:34.587Z,65.80
2018-09-13T12:16:08.792Z,66.00
2018-09-13T12:18:39.647Z,65.80
2018-09-13T12:21:14.445Z,65.70
2018-09-13T12:23:47.236Z,65.00
2018-09-13T12:26:20.819Z,64.60
2018-09-13T12:28:51.823Z,64.70
2018-09-13T12:31:28.890Z,65.20
2018-09-13T12:33:59.726Z,65.80
2018-09-13T12:36:29.386Z,65.70
2018-09-13T12:39:04.530Z,66.10
2018-09-13T12:41:38.589Z,65.70
2018-09-13T12:44:09.960Z,65.70
2018-09-13T12:46:42.727Z,65.10
2018-09-13T12:49:18.787Z,64.90
2018-09-13T12:51:52.850Z,66.10
2018-09-13T12:54:24.863Z,66.70
2018-09-13T12:56:55.239Z,65.90
2018-09-13T12:59:30.087Z,66.50
2018-09-13T13:02:03.408Z,66.60
2018-09-13T13:04:33.743Z,65.90
2018-09-13T13:07:06.075Z,65.00
2018-09-13T13:09:38.864Z,64.80
2018-09-13T13:12:09.263Z,64.30
2018-09-13T13:18:01.604Z,63.30
2018-09-13T13:20:35.652Z,63.70
2018-09-13T13:23:08.391Z,64.10
2018-09-13T13:25:39.250Z,63.80
2018-09-13T13:28:11.149Z,63.10
2018-09-13T13:30:44.224Z,64.30
2018-09-13T13:33:17.080Z,64.20
2018-09-13T13:35:50.519Z,64.10
2018-09-13T13:38:22.356Z,64.30
2018-09-13T13:40:52.446Z,63.70
2018-09-13T13:43:22.443Z,63.50
2018-09-13T13:45:53.178Z,63.60
2018-09-13T13:48:25.545Z,63.90
2018-09-13T13:50:56.967Z,63.40
2018-09-13T13:53:27.734Z,62.90
2018-09-13T13:55:57.184Z,63.10
2018-09-13T13:58:32.728Z,62.30
2018-09-13T14:01:02.727Z,63.60
2018-09-13T14:03:32.935Z,63.30
2018-09-13T14:06:02.407Z,63.20
2018-09-13T14:08:31.555Z,62.80
2018-09-13T14:11:01.353Z,63.50
2018-09-13T14:13:31.084Z,63.50
2018-09-13T14:16:28.832Z,63.20
2018-09-13T14:18:57.095Z,63.20
2018-09-13T14:21:25.376Z,62.90
2018-09-13T14:23:53.678Z,62.30
2018-09-13T14:26:21.940Z,62.20
2018-09-13T14:28:50.268Z,62.30
2018-09-13T14:31:18.555Z,62.40
2018-09-13T14:33:46.841Z,64.10
2018-09-13T14:36:15.143Z,65.40
2018-09-13T14:38:43.687Z,66.30
2018-09-13T14:41:12.133Z,67.00
2018-09-13T14:43:40.409Z,66.90
2018-09-13T14:46:08.719Z,67.10
2018-09-13T14:48:37.008Z,66.70
2018-09-13T14:51:05.539Z,66.40
2018-09-13T14:53:33.783Z,66.80
2018-09-13T14:56:02.124Z,67.70
2018-09-13T14:58:30.411Z,68.00
2018-09-13T15:00:58.703Z,68.00
2018-09-13T15:03:27.033Z,69.00
2018-09-13T15:05:55.288Z,68.40
2018-09-13T15:08:23.610Z,68.60
2018-09-13T15:10:51.859Z,68.50
2018-09-13T15:13:20.127Z,68.40
2018-09-13T15:16:40.599Z,68.20
2018-09-13T15:19:08.900Z,68.10
2018-09-13T15:21:37.179Z,67.80
2018-09-13T15:24:05.546Z,67.40
2018-09-13T15:26:33.823Z,67.50
2018-09-13T15:29:02.172Z,67.00
2018-09-13T15:31:30.417Z,66.90
2018-09-13T15:33:58.689Z,68.00
2018-09-13T15:36:26.908Z,68.60
2018-09-13T15:38:55.182Z,68.80
2018-09-13T15:41:23.452Z,68.00
2018-09-13T15:43:52.229Z,68.80
2018-09-13T15:46:20.473Z,67.80
2018-09-13T15:48:48.745Z,68.10
2018-09-13T15:51:17.001Z,67.20
2018-09-13T15:53:45.275Z,67.10
2018-09-13T15:56:13.574Z,67.00
2018-09-13T15:58:41.987Z,66.20
2018-09-13T16:01:10.248Z,66.10
2018-09-13T16:03:38.447Z,66.30
2018-09-13T16:06:06.767Z,66.90
2018-09-13T16:08:35.037Z,67.20
2018-09-13T16:11:03.356Z,67.70
2018-09-13T16:13:31.696Z,68.40
2018-09-13T16:19:25.735Z,69.10
2018-09-13T16:21:53.981Z,68.60
2018-09-13T16:24:22.255Z,69.10
2018-09-13T16:26:50.515Z,69.40
2018-09-13T16:29:18.866Z,69.50
2018-09-13T16:31:47.179Z,69.50
2018-09-13T16:34:15.476Z,69.60
2018-09-13T16:36:49.582Z,69.70
2018-09-13T16:39:25.156Z,70.30
2018-09-13T16:41:58.898Z,70.70
2018-09-13T16:44:32.743Z,70.50
2018-09-13T16:47:07.390Z,70.80
2018-09-13T16:49:37.964Z,70.90
2018-09-13T16:52:06.343Z,70.90
2018-09-13T16:54:34.687Z,70.20
2018-09-13T16:57:03.106Z,69.90
2018-09-13T16:59:31.448Z,70.00
2018-09-13T17:01:59.999Z,70.10
2018-09-13T17:04:28.320Z,70.40
2018-09-13T17:06:56.626Z,71.40
2018-09-13T17:09:24.864Z,71.80
2018-09-13T17:11:53.127Z,68.40
2018-09-13T17:14:29.775Z,70.40
2018-09-13T17:17:05.727Z,71.60
2018-09-13T17:19:34.020Z,71.60
2018-09-13T17:22:02.364Z,71.60
2018-09-13T17:24:30.586Z,71.10
2018-09-13T17:26:58.949Z,70.60
2018-09-13T17:29:27.203Z,70.10
2018-09-13T17:31:55.439Z,69.60
2018-09-13T17:34:23.715Z,70.30
2018-09-13T17:36:51.987Z,71.80
2018-09-13T17:39:20.281Z,73.00
2018-09-13T17:41:48.600Z,73.30
2018-09-13T17:44:16.932Z,73.80
2018-09-13T17:46:45.237Z,73.60
2018-09-13T17:49:13.498Z,74.40
2018-09-13T17:51:41.784Z,74.40
2018-09-13T17:54:10.100Z,74.30
2018-09-13T17:56:38.371Z,74.40
2018-09-13T17:59:06.656Z,74.70
2018-09-13T18:01:34.997Z,74.80
2018-09-13T18:04:03.324Z,75.10
2018-09-13T18:06:31.668Z,74.90
2018-09-13T18:08:59.994Z,74.50
2018-09-13T18:11:28.396Z,74.20
2018-09-13T18:13:57.002Z,74.20
2018-09-13T18:19:44.471Z,74.30
2018-09-13T18:22:12.795Z,74.60
2018-09-13T18:24:41.325Z,74.40
2018-09-13T18:27:09.648Z,74.20
2018-09-13T18:29:37.892Z,74.20
2018-09-13T18:32:06.276Z,74.30
2018-09-13T18:34:34.755Z,74.30
2018-09-13T18:37:03.414Z,74.30
2018-09-13T18:39:31.840Z,74.30
2018-09-13T18:42:00.794Z,74.10
2018-09-13T18:44:29.518Z,74.10
2018-09-13T18:46:58.474Z,74.50
2018-09-13T18:49:27.600Z,74.50
2018-09-13T18:51:56.972Z,74.70
2018-09-13T18:54:25.936Z,74.60
2018-09-13T18:56:54.790Z,74.70
2018-09-13T18:59:23.410Z,74.50
2018-09-13T19:01:51.797Z,75.00
2018-09-13T19:04:20.135Z,74.80
2018-09-13T19:06:48.667Z,75.10
2018-09-13T19:09:17.199Z,75.20
2018-09-13T19:11:46.424Z,75.40
2018-09-13T19:14:33.847Z,75.20
2018-09-13T19:17:23.024Z,75.50
2018-09-13T19:19:51.340Z,75.70
2018-09-13T19:22:19.660Z,75.70
2018-09-13T19:24:48.166Z,75.80
2018-09-13T19:27:16.468Z,75.70
2018-09-13T19:29:44.816Z,75.60
2018-09-13T19:32:13.419Z,75.70
2018-09-13T19:34:41.685Z,75.80
2018-09-13T19:37:10.099Z,75.90
2018-09-13T19:39:39.081Z,75.60
2018-09-13T19:42:07.497Z,75.30
2018-09-13T19:44:35.784Z,75.30
2018-09-13T19:47:04.701Z,75.20
2018-09-13T19:49:33.048Z,75.20
2018-09-13T19:52:01.336Z,75.20
2018-09-13T19:54:29.566Z,75.40
2018-09-13T19:56:57.856Z,75.60
2018-09-13T19:59:26.158Z,75.70
2018-09-13T20:01:54.452Z,75.70
2018-09-13T20:04:22.719Z,75.80
2018-09-13T20:06:51.014Z,76.00
2018-09-13T20:09:19.276Z,76.00
2018-09-13T20:11:47.631Z,76.00
2018-09-13T20:14:33.023Z,76.30
2018-09-13T20:20:29.607Z,76.80
2018-09-13T20:22:57.837Z,77.30
2018-09-13T20:25:45.242Z,77.50
2018-09-13T20:28:24.402Z,77.60
2018-09-13T20:30:52.654Z,78.00
2018-09-13T20:33:20.899Z,78.20
2018-09-13T20:35:49.127Z,78.70
2018-09-13T20:38:17.419Z,79.00
2018-09-13T20:40:45.715Z,79.00
2018-09-13T20:43:13.951Z,79.10
2018-09-13T20:45:42.329Z,79.20
2018-09-13T20:48:10.771Z,79.40
2018-09-13T20:50:39.018Z,79.90
2018-09-13T20:53:07.328Z,80.00
2018-09-13T20:55:35.565Z,80.20
2018-09-13T20:58:03.816Z,80.40
2018-09-13T21:00:32.114Z,80.30
2018-09-13T21:03:00.386Z,80.40
2018-09-13T21:05:28.667Z,80.80
2018-09-13T21:07:57.007Z,81.30
2018-09-13T21:10:26.067Z,82.40
2018-09-13T21:12:54.324Z,82.00
2018-09-13T21:18:39.979Z,82.30
2018-09-13T21:21:08.258Z,82.60
2018-09-13T21:23:36.577Z,82.60
2018-09-13T21:26:04.953Z,82.20
2018-09-13T21:28:33.337Z,82.00
2018-09-13T21:31:01.608Z,82.00
2018-09-13T21:33:29.886Z,82.00
2018-09-13T21:35:58.836Z,82.00
2018-09-13T21:38:27.247Z,82.20
2018-09-13T21:40:55.620Z,82.60
2018-09-13T21:43:23.934Z,82.70
2018-09-13T21:45:52.223Z,83.00
2018-09-13T21:48:20.475Z,83.20
2018-09-13T21:50:48.738Z,83.30
2018-09-13T21:53:17.287Z,83.20
2018-09-13T21:55:45.568Z,83.00
2018-09-13T21:58:13.808Z,83.30
2018-09-13T22:00:42.091Z,83.70
2018-09-13T22:03:10.375Z,84.30
2018-09-13T22:05:38.651Z,84.40
2018-09-13T22:08:08.011Z,84.50
2018-09-13T22:10:36.729Z,84.30
2018-09-13T22:13:05.911Z,84.10
2018-09-13T22:15:36.332Z,83.90
2018-09-13T22:18:04.779Z,83.60
2018-09-13T22:20:33.109Z,83.40
2018-09-13T22:23:01.535Z,83.30
2018-09-13T22:25:29.884Z,83.20
2018-09-13T22:27:58.251Z,83.20
2018-09-13T22:30:26.733Z,83.30
2018-09-13T22:32:55.991Z,83.40
2018-09-13T22:35:24.338Z,83.30
2018-09-13T22:37:52.647Z,83.60
2018-09-13T22:40:21.038Z,83.60
2018-09-13T22:42:49.302Z,83.70
2018-09-13T22:45:17.643Z,84.10
2018-09-13T22:47:46.047Z,84.10
2018-09-13T22:50:14.311Z,84.20
2018-09-13T22:52:42.632Z,84.50
2018-09-13T22:55:10.891Z,84.60
2018-09-13T22:57:39.211Z,84.70
2018-09-13T23:00:07.761Z,85.00
2018-09-13T23:02:41.452Z,85.30
2018-09-13T23:05:09.844Z,85.50
2018-09-13T23:07:45.083Z,85.60
2018-09-13T23:10:13.466Z,85.90
2018-09-13T23:12:41.747Z,86.00
2018-09-13T23:15:10.056Z,86.20
2018-09-13T23:17:38.387Z,86.30
2018-09-13T23:20:06.875Z,86.90
2018-09-13T23:22:35.168Z,86.60
2018-09-13T23:25:03.623Z,86.80
2018-09-13T23:27:32.020Z,86.70
2018-09-13T23:30:00.331Z,86.90
2018-09-13T23:32:28.577Z,87.30
2018-09-13T23:34:56.842Z,87.50
2018-09-13T23:37:26.500Z,87.70
2018-09-13T23:39:54.880Z,87.80
2018-09-13T23:42:24.474Z,87.50
2018-09-13T23:44:52.714Z,87.60
2018-09-13T23:47:21.046Z,87.60
2018-09-13T23:49:49.347Z,88.00
2018-09-13T23:52:17.627Z,88.40
2018-09-13T23:54:45.851Z,88.60
2018-09-13T23:57:20.600Z,88.90
2018-09-13T23:59:48.839Z,88.90
